createdAt,value
2018-09-08T00:00:06.723Z,86.85
2018-09-08T00:02:40.990Z,86.05
2018-09-08T00:05:16.221Z,86.78
2018-09-08T00:07:50.915Z,86.66
2018-09-08T00:10:25.347Z,86.02
2018-09-08T00:12:59.689Z,86.25
2018-09-08T00:15:39.551Z,87.12
2018-09-08T00:18:19.284Z,86.31
2018-09-08T00:20:58.883Z,86.20
2018-09-08T00:23:38.999Z,86.22
2018-09-08T00:26:18.985Z,86.25
2018-09-08T00:29:31.104Z,86.46
2018-09-08T00:32:09.242Z,86.43
2018-09-08T00:34:43.600Z,87.28
2018-09-08T00:37:18.229Z,87.22
2018-09-08T00:39:52.764Z,86.95
2018-09-08T00:42:27.436Z,86.38
2018-09-08T00:45:01.855Z,86.14
2018-09-08T00:47:36.612Z,86.95
2018-09-08T00:50:11.288Z,86.38
2018-09-08T00:52:45.724Z,86.90
2018-09-08T00:55:20.740Z,86.47
2018-09-08T00:57:55.121Z,86.24
2018-09-08T01:00:29.585Z,86.31
2018-09-08T01:03:04.002Z,86.22
2018-09-08T01:05:38.490Z,86.56
2018-09-08T01:08:12.871Z,86.61
2018-09-08T01:10:47.315Z,86.20
2018-09-08T01:13:21.745Z,85.70
2018-09-08T01:15:56.305Z,86.17
2018-09-08T01:18:34.640Z,85.38
2018-09-08T01:21:09.667Z,84.80
2018-09-08T01:23:49.504Z,84.21
2018-09-08T01:26:23.871Z,85.12
2018-09-08T01:28:58.375Z,85.05
2018-09-08T01:31:32.827Z,84.11
2018-09-08T01:34:07.256Z,84.90
2018-09-08T01:36:41.520Z,85.19
2018-09-08T01:39:15.804Z,86.01
2018-09-08T01:41:50.414Z,85.88
2018-09-08T01:44:24.825Z,86.27
2018-09-08T01:46:59.179Z,86.27
2018-09-08T01:49:33.738Z,86.35
2018-09-08T01:52:08.636Z,86.28
2018-09-08T01:54:43.313Z,85.79
2018-09-08T01:57:17.633Z,85.95
2018-09-08T01:59:52.348Z,85.96
2018-09-08T02:02:26.791Z,85.62
2018-09-08T02:05:01.056Z,85.29
2018-09-08T02:07:35.676Z,85.05
2018-09-08T02:10:10.235Z,84.94
2018-09-08T02:12:44.525Z,85.61
2018-09-08T02:15:18.798Z,85.77
2018-09-08T02:17:53.448Z,86.75
2018-09-08T02:20:28.049Z,86.64
2018-09-08T02:23:02.732Z,86.62
2018-09-08T02:25:37.791Z,86.62
2018-09-08T02:28:12.618Z,86.52
2018-09-08T02:30:47.053Z,87.11
2018-09-08T02:33:21.384Z,86.82
2018-09-08T02:35:56.176Z,86.82
2018-09-08T02:38:30.983Z,86.82
2018-09-08T02:41:06.123Z,86.66
2018-09-08T02:43:40.775Z,86.43
2018-09-08T02:46:15.330Z,87.35
2018-09-08T02:48:49.656Z,86.75
2018-09-08T02:51:23.059Z,86.94
2018-09-08T02:53:56.541Z,87.42
2018-09-08T02:56:29.888Z,86.65
2018-09-08T02:59:03.420Z,87.04
2018-09-08T03:01:36.871Z,87.03
2018-09-08T03:04:10.424Z,86.77
2018-09-08T03:06:44.790Z,86.54
2018-09-08T03:09:18.215Z,86.83
2018-09-08T03:11:51.760Z,86.53
2018-09-08T03:14:25.201Z,87.44
2018-09-08T03:16:58.567Z,86.59
2018-09-08T03:19:32.278Z,86.59
2018-09-08T03:22:05.603Z,86.77
2018-09-08T03:24:38.941Z,86.81
2018-09-08T03:27:12.413Z,87.04
2018-09-08T03:29:45.683Z,87.06
2018-09-08T03:32:19.041Z,87.12
2018-09-08T03:34:52.388Z,86.85
2018-09-08T03:37:25.823Z,86.72
2018-09-08T03:39:59.200Z,87.20
2018-09-08T03:42:32.716Z,87.08
2018-09-08T03:45:06.155Z,86.86
2018-09-08T03:47:39.672Z,86.91
2018-09-08T03:50:13.025Z,85.82
2018-09-08T03:52:46.539Z,85.88
2018-09-08T03:55:20.114Z,85.77
2018-09-08T03:57:53.549Z,85.46
2018-09-08T04:00:26.840Z,85.14
2018-09-08T04:03:01.414Z,85.41
2018-09-08T04:05:35.878Z,85.55
2018-09-08T04:08:10.612Z,85.27
2018-09-08T04:10:45.407Z,85.47
2018-09-08T04:13:20.130Z,86.08
2018-09-08T04:15:54.719Z,85.80
2018-09-08T04:18:29.132Z,85.58
2018-09-08T04:21:03.999Z,85.78
2018-09-08T04:23:38.315Z,85.38
2018-09-08T04:26:12.653Z,85.83
2018-09-08T04:28:47.050Z,85.51
2018-09-08T04:31:21.708Z,85.44
2018-09-08T04:33:56.347Z,84.73
2018-09-08T04:36:30.743Z,84.55
2018-09-08T04:39:08.155Z,84.84
2018-09-08T04:41:42.476Z,84.43
2018-09-08T04:44:17.418Z,83.79
2018-09-08T04:46:51.772Z,84.38
2018-09-08T04:49:26.302Z,84.38
2018-09-08T04:52:01.236Z,85.28
2018-09-08T04:54:35.541Z,84.88
2018-09-08T04:57:10.019Z,85.67
2018-09-08T04:59:44.653Z,84.95
2018-09-08T05:02:19.191Z,85.02
2018-09-08T05:04:53.820Z,85.17
2018-09-08T05:07:28.627Z,85.41
2018-09-08T05:10:03.495Z,84.76
2018-09-08T05:12:37.916Z,84.79
2018-09-08T05:15:12.648Z,85.44
2018-09-08T05:17:47.156Z,86.04
2018-09-08T05:20:22.247Z,86.09
2018-09-08T05:22:57.072Z,86.61
2018-09-08T05:25:31.752Z,85.79
2018-09-08T05:28:06.266Z,85.63
2018-09-08T05:30:40.772Z,85.87
2018-09-08T05:33:15.365Z,86.12
2018-09-08T05:35:50.063Z,85.55
2018-09-08T05:38:25.212Z,86.02
2018-09-08T05:40:59.702Z,85.51
2018-09-08T05:43:34.485Z,86.88
2018-09-08T05:46:08.785Z,89.13
2018-09-08T05:48:43.218Z,87.34
2018-09-08T05:51:17.964Z,86.39
2018-09-08T05:53:52.229Z,86.08
2018-09-08T05:56:26.705Z,86.07
2018-09-08T05:59:01.155Z,86.17
2018-09-08T06:01:36.033Z,85.84
2018-09-08T06:04:10.627Z,85.24
2018-09-08T06:06:45.329Z,85.47
2018-09-08T06:09:20.052Z,86.18
2018-09-08T06:11:54.503Z,86.28
2018-09-08T06:14:29.427Z,87.39
2018-09-08T06:17:04.255Z,86.70
2018-09-08T06:19:38.596Z,87.02
2018-09-08T06:22:13.487Z,86.79
2018-09-08T06:24:48.101Z,85.50
2018-09-08T06:27:22.654Z,84.55
2018-09-08T06:29:57.032Z,83.03
2018-09-08T06:32:31.403Z,83.02
2018-09-08T06:35:06.044Z,82.69
2018-09-08T06:37:40.857Z,81.99
2018-09-08T06:40:15.443Z,81.09
2018-09-08T06:42:50.077Z,80.73
2018-09-08T06:45:24.600Z,77.40
2018-09-08T06:47:59.048Z,77.54
2018-09-08T06:50:33.491Z,80.01
2018-09-08T06:53:07.823Z,78.99
2018-09-08T06:55:42.176Z,75.60
2018-09-08T06:58:16.605Z,76.34
2018-09-08T07:00:51.037Z,74.90
2018-09-08T07:03:25.487Z,76.82
2018-09-08T07:06:00.083Z,79.62
2018-09-08T07:08:35.095Z,77.13
2018-09-08T07:11:09.773Z,77.56
2018-09-08T07:13:45.141Z,73.27
2018-09-08T07:16:19.655Z,74.32
2018-09-08T07:18:54.365Z,74.51
2018-09-08T07:21:29.950Z,76.09
2018-09-08T07:24:05.023Z,77.98
2018-09-08T07:26:39.713Z,77.06
2018-09-08T07:29:14.169Z,76.82
2018-09-08T07:31:48.615Z,73.09
2018-09-08T07:34:23.026Z,73.96
2018-09-08T07:36:57.832Z,75.07
2018-09-08T07:39:32.564Z,74.22
2018-09-08T07:42:07.016Z,75.63
2018-09-08T07:44:41.764Z,75.25
2018-09-08T07:47:16.308Z,75.61
2018-09-08T07:49:50.779Z,73.51
2018-09-08T07:52:25.484Z,74.21
2018-09-08T07:54:59.944Z,71.28
2018-09-08T07:57:35.217Z,70.25
2018-09-08T08:00:10.167Z,71.61
2018-09-08T08:02:44.988Z,67.53
2018-09-08T08:05:19.283Z,67.62
2018-09-08T08:07:53.709Z,68.72
2018-09-08T08:10:27.968Z,71.46
2018-09-08T08:13:02.457Z,68.94
2018-09-08T08:15:37.052Z,69.52
2018-09-08T08:18:11.396Z,67.04
2018-09-08T08:20:45.659Z,66.29
2018-09-08T08:23:20.354Z,67.41
2018-09-08T08:25:55.006Z,69.13
2018-09-08T08:28:29.740Z,68.66
2018-09-08T08:31:04.639Z,64.47
2018-09-08T08:33:39.524Z,69.03
2018-09-08T08:36:13.819Z,69.43
2018-09-08T08:38:48.294Z,65.43
2018-09-08T08:41:23.300Z,64.88
2018-09-08T08:43:58.036Z,59.21
2018-09-08T08:46:32.896Z,58.71
2018-09-08T08:49:07.327Z,62.77
2018-09-08T08:51:53.368Z,62.28
2018-09-08T08:54:33.335Z,61.46
2018-09-08T08:57:08.140Z,61.55
2018-09-08T08:59:42.867Z,61.03
2018-09-08T09:02:17.226Z,60.44
2018-09-08T09:04:51.654Z,63.36
2018-09-08T09:07:26.688Z,62.37
2018-09-08T09:10:01.103Z,60.68
2018-09-08T09:12:36.015Z,61.48
2018-09-08T09:15:10.571Z,59.90
2018-09-08T09:17:45.288Z,61.55
2018-09-08T09:20:30.988Z,58.12
2018-09-08T09:24:17.715Z,61.93
2018-09-08T09:26:51.993Z,57.08
2018-09-08T09:29:26.307Z,57.69
2018-09-08T09:32:01.118Z,63.30
2018-09-08T09:34:35.575Z,57.13
2018-09-08T09:37:14.975Z,58.57
2018-09-08T09:39:52.874Z,56.65
2018-09-08T09:42:28.037Z,54.68
2018-09-08T09:45:04.856Z,53.03
2018-09-08T09:47:39.621Z,55.55
2018-09-08T09:50:14.980Z,52.70
2018-09-08T09:52:49.664Z,55.55
2018-09-08T09:55:24.575Z,52.72
2018-09-08T09:57:58.995Z,54.56
2018-09-08T10:00:38.956Z,56.73
2018-09-08T10:03:13.504Z,57.58
2018-09-08T10:05:48.330Z,53.00
2018-09-08T10:08:22.979Z,57.97
2018-09-08T10:10:57.444Z,59.37
2018-09-08T10:13:38.395Z,53.66
2018-09-08T10:16:12.996Z,52.53
2018-09-08T10:18:48.235Z,54.52
2018-09-08T10:21:22.768Z,54.04
2018-09-08T10:24:05.156Z,54.40
2018-09-08T10:26:32.307Z,51.97
2018-09-08T10:29:06.724Z,53.54
2018-09-08T10:31:41.191Z,52.84
2018-09-08T10:34:15.845Z,56.10
2018-09-08T10:36:50.712Z,54.65
2018-09-08T10:39:25.647Z,56.11
2018-09-08T10:44:39.333Z,55.80
2018-09-08T10:47:14.121Z,48.88
2018-09-08T10:49:48.839Z,53.15
2018-09-08T10:52:33.636Z,49.53
2018-09-08T10:55:10.165Z,53.62
2018-09-08T10:57:47.572Z,52.87
2018-09-08T11:00:25.858Z,53.82
2018-09-08T11:03:00.772Z,53.47
2018-09-08T11:05:35.956Z,55.84
2018-09-08T11:08:11.125Z,55.81
2018-09-08T11:10:48.250Z,54.27
2018-09-08T11:13:23.308Z,54.44
2018-09-08T11:16:01.257Z,55.57
2018-09-08T11:18:35.801Z,60.20
2018-09-08T11:21:10.328Z,55.21
2018-09-08T11:23:44.880Z,53.64
2018-09-08T11:26:19.219Z,55.04
2018-09-08T11:28:55.483Z,58.79
2018-09-08T11:31:30.144Z,61.60
2018-09-08T11:34:05.212Z,60.71
2018-09-08T11:36:39.709Z,59.09
2018-09-08T11:39:14.169Z,59.39
2018-09-08T11:41:48.758Z,60.62
2018-09-08T11:44:23.138Z,60.26
2018-09-08T11:46:58.451Z,61.65
2018-09-08T11:49:32.936Z,60.55
2018-09-08T11:52:07.843Z,56.23
2018-09-08T11:54:42.404Z,52.70
2018-09-08T11:57:17.027Z,58.68
2018-09-08T11:59:51.603Z,54.19
2018-09-08T12:02:26.959Z,54.21
2018-09-08T12:05:01.756Z,54.60
2018-09-08T12:07:37.268Z,54.28
2018-09-08T12:10:11.720Z,55.17
2018-09-08T12:12:46.408Z,56.07
2018-09-08T12:15:20.813Z,55.27
2018-09-08T12:17:55.211Z,57.56
2018-09-08T12:20:29.553Z,58.12
2018-09-08T12:23:04.741Z,59.20
2018-09-08T12:25:39.258Z,55.75
2018-09-08T12:28:14.225Z,58.48
2018-09-08T12:30:57.738Z,56.81
2018-09-08T12:33:38.318Z,60.45
2018-09-08T12:36:12.909Z,54.23
2018-09-08T12:38:51.090Z,53.99
2018-09-08T12:41:28.795Z,50.55
2018-09-08T12:44:11.921Z,51.44
2018-09-08T12:46:49.150Z,49.32
2018-09-08T12:49:27.843Z,51.08
2018-09-08T12:52:10.499Z,49.86
2018-09-08T12:54:48.062Z,50.12
2018-09-08T12:57:29.306Z,50.14
2018-09-08T13:00:04.109Z,50.86
2018-09-08T13:02:38.544Z,47.83
2018-09-08T13:05:13.559Z,50.42
2018-09-08T13:07:48.494Z,46.47
2018-09-08T13:10:23.242Z,46.92
2018-09-08T13:12:57.727Z,51.20
2018-09-08T13:15:32.244Z,47.62
2018-09-08T13:18:07.304Z,48.20
2018-09-08T13:20:41.892Z,46.45
2018-09-08T13:23:16.336Z,47.77
2018-09-08T13:25:53.009Z,43.59
2018-09-08T13:28:27.659Z,47.25
2018-09-08T13:31:02.173Z,46.07
2018-09-08T13:33:36.769Z,48.34
2018-09-08T13:36:12.795Z,47.83
2018-09-08T13:38:54.207Z,46.82
2018-09-08T13:41:31.229Z,45.30
2018-09-08T13:44:08.734Z,50.62
2018-09-08T13:46:44.733Z,47.84
2018-09-08T13:49:25.137Z,49.36
2018-09-08T13:52:02.423Z,42.26
2018-09-08T13:54:37.072Z,43.87
2018-09-08T13:57:11.577Z,42.64
2018-09-08T13:59:47.961Z,41.35
2018-09-08T14:02:22.596Z,44.40
2018-09-08T14:04:57.251Z,42.76
2018-09-08T14:07:32.643Z,46.11
2018-09-08T14:10:13.457Z,45.35
2018-09-08T14:12:47.855Z,49.93
2018-09-08T14:15:22.496Z,50.53
2018-09-08T14:17:57.127Z,49.70
2018-09-08T14:20:31.957Z,52.14
2018-09-08T14:23:06.615Z,46.23
2018-09-08T14:25:41.098Z,50.59
2018-09-08T14:28:16.374Z,52.49
2018-09-08T14:30:50.871Z,49.34
2018-09-08T14:33:25.396Z,49.94
2018-09-08T14:35:59.703Z,49.10
2018-09-08T14:38:34.138Z,53.44
2018-09-08T14:41:14.093Z,51.95
2018-09-08T14:43:48.500Z,48.03
2018-09-08T14:46:22.951Z,46.08
2018-09-08T14:48:57.306Z,45.77
2018-09-08T14:51:31.788Z,49.47
2018-09-08T14:54:06.561Z,50.45
2018-09-08T14:56:41.075Z,50.95
2018-09-08T14:59:16.156Z,51.86
2018-09-08T15:01:50.433Z,50.89
2018-09-08T15:04:25.066Z,49.59
2018-09-08T15:06:59.467Z,50.47
2018-09-08T15:09:33.962Z,46.68
2018-09-08T15:12:09.214Z,46.67
2018-09-08T15:14:43.974Z,46.89
2018-09-08T15:17:18.435Z,47.53
2018-09-08T15:19:53.069Z,49.01
2018-09-08T15:22:27.743Z,49.15
2018-09-08T15:25:02.971Z,48.45
2018-09-08T15:27:37.519Z,47.57
2018-09-08T15:30:12.069Z,49.59
2018-09-08T15:32:46.626Z,50.43
2018-09-08T15:35:21.373Z,50.10
2018-09-08T15:37:55.852Z,53.48
2018-09-08T15:40:30.305Z,55.85
2018-09-08T15:46:04.801Z,53.47
2018-09-08T15:48:40.129Z,53.52
2018-09-08T15:51:14.598Z,52.71
2018-09-08T15:53:50.180Z,52.44
2018-09-08T15:56:25.514Z,50.26
2018-09-08T15:59:22.834Z,53.03
2018-09-08T16:02:08.924Z,51.17
2018-09-08T16:04:59.568Z,50.56
2018-09-08T16:07:34.796Z,52.80
2018-09-08T16:10:09.311Z,50.53
2018-09-08T16:12:44.114Z,52.41
2018-09-08T16:15:19.164Z,51.77
2018-09-08T16:17:53.556Z,50.92
2018-09-08T16:20:28.804Z,50.62
2018-09-08T16:23:16.343Z,51.98
2018-09-08T16:25:50.941Z,53.48
2018-09-08T16:28:25.363Z,53.90
2018-09-08T16:30:59.781Z,53.46
2018-09-08T16:33:34.092Z,55.29
2018-09-08T16:36:08.800Z,56.07
2018-09-08T16:38:43.286Z,57.71
2018-09-08T16:41:17.924Z,55.98
2018-09-08T16:43:52.728Z,57.48
2018-09-08T16:46:27.076Z,59.05
2018-09-08T16:49:01.512Z,60.52
2018-09-08T16:51:35.836Z,61.76
2018-09-08T16:54:10.236Z,62.14
2018-09-08T16:56:44.671Z,63.54
2018-09-08T16:59:19.097Z,63.33
2018-09-08T17:01:53.911Z,65.07
2018-09-08T17:04:28.592Z,64.99
2018-09-08T17:07:03.084Z,65.42
2018-09-08T17:09:37.504Z,65.75
2018-09-08T17:12:12.132Z,66.39
2018-09-08T17:14:46.666Z,65.63
2018-09-08T17:17:21.095Z,65.05
2018-09-08T17:19:55.543Z,67.29
2018-09-08T17:22:30.348Z,67.77
2018-09-08T17:25:04.695Z,68.61
2018-09-08T17:27:39.029Z,67.82
2018-09-08T17:30:13.309Z,68.16
2018-09-08T17:32:47.721Z,68.62
2018-09-08T17:35:22.392Z,68.93
2018-09-08T17:37:57.160Z,68.84
2018-09-08T17:40:32.116Z,69.62
2018-09-08T17:43:06.529Z,69.56
2018-09-08T17:45:40.933Z,69.80
2018-09-08T17:48:15.411Z,70.61
2018-09-08T17:50:49.762Z,71.17
2018-09-08T17:55:55.723Z,71.16
2018-09-08T17:58:30.286Z,71.83
2018-09-08T18:01:06.497Z,71.86
2018-09-08T18:03:41.005Z,72.61
2018-09-08T18:06:15.336Z,72.27
2018-09-08T18:08:50.203Z,72.72
2018-09-08T18:11:24.897Z,71.77
2018-09-08T18:13:59.972Z,72.07
2018-09-08T18:16:34.429Z,72.21
2018-09-08T18:19:09.488Z,73.33
2018-09-08T18:21:44.244Z,73.61
2018-09-08T18:24:18.868Z,73.66
2018-09-08T18:26:53.489Z,73.35
2018-09-08T18:29:28.692Z,73.73
2018-09-08T18:32:03.573Z,74.00
2018-09-08T18:34:37.983Z,73.98
2018-09-08T18:37:12.268Z,74.87
2018-09-08T18:39:46.528Z,75.09
2018-09-08T18:42:21.000Z,75.33
2018-09-08T18:44:55.633Z,75.35
2018-09-08T18:47:29.958Z,75.60
2018-09-08T18:50:04.923Z,75.21
2018-09-08T18:52:39.828Z,75.22
2018-09-08T18:55:14.888Z,75.09
2018-09-08T18:57:49.318Z,76.02
2018-09-08T19:00:23.701Z,75.91
2018-09-08T19:02:57.998Z,75.93
2018-09-08T19:05:32.616Z,76.24
2018-09-08T19:08:07.266Z,75.98
2018-09-08T19:10:41.660Z,76.52
2018-09-08T19:13:16.088Z,76.36
2018-09-08T19:15:50.435Z,76.51
2018-09-08T19:18:24.779Z,76.98
2018-09-08T19:20:59.119Z,77.05
2018-09-08T19:23:33.417Z,77.20
2018-09-08T19:26:08.194Z,77.16
2018-09-08T19:28:42.700Z,77.09
2018-09-08T19:31:17.107Z,77.42
2018-09-08T19:33:51.524Z,77.73
2018-09-08T19:36:26.044Z,78.15
2018-09-08T19:39:00.530Z,79.23
2018-09-08T19:41:34.957Z,79.08
2018-09-08T19:44:09.414Z,78.79
2018-09-08T19:46:49.296Z,79.01
2018-09-08T19:49:23.773Z,78.87
2018-09-08T19:51:58.251Z,79.08
2018-09-08T19:54:33.475Z,78.57
2018-09-08T19:57:13.316Z,78.50
2018-09-08T19:59:47.648Z,78.50
2018-09-08T20:02:22.292Z,78.80
2018-09-08T20:04:56.992Z,78.77
2018-09-08T20:07:31.527Z,79.08
2018-09-08T20:10:06.240Z,78.55
2018-09-08T20:12:40.637Z,79.40
2018-09-08T20:15:15.161Z,79.10
2018-09-08T20:17:49.528Z,78.98
2018-09-08T20:20:24.228Z,79.28
2018-09-08T20:22:58.617Z,79.19
2018-09-08T20:25:33.296Z,79.82
2018-09-08T20:28:07.643Z,79.31
2018-09-08T20:30:42.139Z,79.77
2018-09-08T20:33:16.746Z,79.60
2018-09-08T20:35:52.340Z,79.91
2018-09-08T20:38:28.157Z,79.56
2018-09-08T20:41:03.068Z,80.44
2018-09-08T20:43:37.559Z,80.36
2018-09-08T20:46:12.729Z,80.12
2018-09-08T20:48:47.196Z,80.40
2018-09-08T20:51:21.879Z,80.14
2018-09-08T20:53:56.771Z,80.05
2018-09-08T20:56:31.567Z,79.65
2018-09-08T20:59:06.512Z,79.80
2018-09-08T21:01:40.889Z,79.57
2018-09-08T21:04:15.828Z,79.48
2018-09-08T21:06:50.232Z,79.31
2018-09-08T21:09:24.548Z,79.67
2018-09-08T21:11:59.008Z,78.99
2018-09-08T21:14:33.508Z,79.51
2018-09-08T21:17:08.337Z,79.44
2018-09-08T21:19:43.464Z,79.83
2018-09-08T21:22:17.787Z,80.10
2018-09-08T21:24:52.277Z,79.66
2018-09-08T21:27:27.065Z,80.29
2018-09-08T21:30:01.389Z,79.79
2018-09-08T21:32:35.784Z,80.14
2018-09-08T21:35:10.060Z,80.51
2018-09-08T21:37:44.724Z,80.58
2018-09-08T21:40:19.274Z,80.52
2018-09-08T21:42:53.611Z,81.82
2018-09-08T21:45:28.005Z,81.15
2018-09-08T21:48:02.511Z,80.87
2018-09-08T21:50:37.422Z,81.09
2018-09-08T21:53:11.802Z,82.22
2018-09-08T21:55:46.576Z,81.19
2018-09-08T21:58:21.045Z,81.00
2018-09-08T22:00:55.420Z,79.93
2018-09-08T22:03:30.069Z,80.58
2018-09-08T22:06:05.104Z,80.41
2018-09-08T22:08:40.085Z,80.28
2018-09-08T22:11:15.063Z,80.09
2018-09-08T22:13:49.798Z,81.29
2018-09-08T22:16:24.199Z,82.25
2018-09-08T22:18:59.079Z,81.68
2018-09-08T22:21:33.400Z,81.75
2018-09-08T22:24:08.219Z,81.65
2018-09-08T22:26:42.905Z,81.98
2018-09-08T22:29:17.351Z,82.54
2018-09-08T22:31:52.139Z,82.13
2018-09-08T22:34:26.632Z,81.52
2018-09-08T22:37:01.275Z,81.30
2018-09-08T22:39:35.984Z,81.56
2018-09-08T22:42:10.863Z,81.31
2018-09-08T22:44:45.235Z,81.22
2018-09-08T22:47:19.662Z,80.58
2018-09-08T22:49:54.344Z,81.75
2018-09-08T22:52:28.776Z,81.48
2018-09-08T22:55:03.276Z,81.31
2018-09-08T22:57:38.380Z,80.76
2018-09-08T23:00:13.153Z,81.39
2018-09-08T23:02:47.688Z,80.99
2018-09-08T23:05:22.203Z,81.77
2018-09-08T23:07:56.635Z,81.67
2018-09-08T23:10:31.321Z,81.04
2018-09-08T23:13:05.888Z,80.47
2018-09-08T23:15:40.420Z,80.72
2018-09-08T23:18:15.176Z,81.65
2018-09-08T23:20:49.551Z,80.94
2018-09-08T23:23:24.016Z,80.66
2018-09-08T23:25:58.816Z,80.21
2018-09-08T23:28:33.329Z,81.35
2018-09-08T23:31:07.967Z,81.78
2018-09-08T23:33:42.764Z,81.74
2018-09-08T23:36:17.204Z,81.10
2018-09-08T23:38:51.737Z,81.32
2018-09-08T23:41:26.185Z,80.90
2018-09-08T23:44:00.648Z,80.74
2018-09-08T23:46:34.944Z,81.64
2018-09-08T23:49:09.739Z,82.25
2018-09-08T23:51:44.200Z,82.38
2018-09-08T23:54:18.579Z,83.01
2018-09-08T23:56:53.476Z,82.64
2018-09-08T23:59:28.151Z,83.11
